createdAt,value
2016-07-05T00:00:32.923Z,0
2016-07-05T00:01:33.512Z,0
2016-07-05T00:02:33.126Z,0
2016-07-05T00:03:33.202Z,0
2016-07-05T00:04:32.908Z,0
2016-07-05T00:05:33.231Z,0
2016-07-05T00:06:33.155Z,0
2016-07-05T00:07:33.188Z,0
2016-07-05T00:08:33.134Z,0
2016-07-05T00:09:32.934Z,0
2016-07-05T00:10:33.127Z,0
2016-07-05T00:11:33.190Z,0
2016-07-05T00:12:33.116Z,0
2016-07-05T00:13:33.201Z,0
2016-07-05T00:14:33.641Z,0
2016-07-05T00:15:33.104Z,0
2016-07-05T00:16:32.932Z,0
2016-07-05T00:17:33.358Z,0
2016-07-05T00:18:33.072Z,0
2016-07-05T00:19:33.223Z,0
2016-07-05T00:20:33.536Z,0
2016-07-05T00:21:33.300Z,0
2016-07-05T00:22:33.102Z,0
2016-07-05T00:23:33.288Z,0
2016-07-05T00:24:33.187Z,0
2016-07-05T00:25:33.212Z,0
2016-07-05T00:26:32.992Z,0
2016-07-05T00:27:33.477Z,0
2016-07-05T00:28:33.290Z,0
2016-07-05T00:29:33.292Z,0
2016-07-05T00:30:33.005Z,0
2016-07-05T00:31:33.369Z,0
2016-07-05T00:32:33.886Z,0
2016-07-05T00:33:33.350Z,0
2016-07-05T00:34:33.443Z,0
2016-07-05T00:35:33.263Z,0
2016-07-05T00:36:33.367Z,0
2016-07-05T00:37:33.323Z,0
2016-07-05T00:38:33.444Z,0
2016-07-05T00:39:33.305Z,0
2016-07-05T00:40:33.333Z,0
2016-07-05T00:41:33.362Z,0
2016-07-05T00:42:33.167Z,0
2016-07-05T00:43:33.135Z,0
2016-07-05T00:44:34.054Z,0
2016-07-05T00:45:33.190Z,0
2016-07-05T00:46:33.388Z,0
2016-07-05T00:47:33.337Z,0
2016-07-05T00:48:33.224Z,0
2016-07-05T00:49:33.260Z,0
2016-07-05T00:50:33.140Z,0
2016-07-05T00:51:33.339Z,0
2016-07-05T00:52:33.314Z,0
2016-07-05T00:53:33.321Z,0
2016-07-05T00:54:33.301Z,0
2016-07-05T00:55:33.125Z,0
2016-07-05T00:56:33.121Z,0
2016-07-05T00:57:33.321Z,0
2016-07-05T00:58:33.368Z,0
2016-07-05T00:59:33.354Z,0
2016-07-05T01:00:33.300Z,0
2016-07-05T01:01:33.390Z,0
2016-07-05T01:02:33.354Z,0
2016-07-05T01:03:33.399Z,0
2016-07-05T01:04:33.263Z,0
2016-07-05T01:05:33.277Z,0
2016-07-05T01:06:33.083Z,0
2016-07-05T01:07:33.315Z,0
2016-07-05T01:08:33.321Z,0
2016-07-05T01:09:33.352Z,0
2016-07-05T01:10:33.326Z,0
2016-07-05T01:11:33.345Z,0
2016-07-05T01:12:33.225Z,0
2016-07-05T01:13:33.397Z,0
2016-07-05T01:14:33.132Z,0
2016-07-05T01:15:33.211Z,0
2016-07-05T01:16:33.011Z,0
2016-07-05T01:17:33.023Z,0
2016-07-05T01:18:33.402Z,0
2016-07-05T01:19:33.249Z,0
2016-07-05T01:20:33.528Z,0
2016-07-05T01:21:33.032Z,0
2016-07-05T01:22:33.275Z,0
2016-07-05T01:23:33.195Z,0
2016-07-05T01:24:33.458Z,0
2016-07-05T01:25:33.096Z,0
2016-07-05T01:26:33.199Z,0
2016-07-05T01:27:32.926Z,0
2016-07-05T01:28:33.732Z,0
2016-07-05T01:29:33.172Z,0
2016-07-05T01:30:33.284Z,0
2016-07-05T01:31:33.154Z,0
2016-07-05T01:32:33.203Z,0
2016-07-05T01:33:32.974Z,0
2016-07-05T01:34:33.251Z,0
2016-07-05T01:35:33.137Z,0
2016-07-05T01:36:32.962Z,0
2016-07-05T01:37:33.222Z,0
2016-07-05T01:38:33.214Z,0
2016-07-05T01:39:32.953Z,0
2016-07-05T01:40:33.230Z,0
2016-07-05T01:41:33.175Z,0
2016-07-05T01:42:33.312Z,0
2016-07-05T01:43:33.146Z,0
2016-07-05T01:44:33.316Z,0
2016-07-05T01:45:32.937Z,0
2016-07-05T01:46:33.037Z,0
2016-07-05T01:47:32.930Z,0
2016-07-05T01:48:33.433Z,0
2016-07-05T01:49:33.136Z,0
2016-07-05T01:50:32.937Z,0
2016-07-05T01:51:32.895Z,0
2016-07-05T01:52:33.092Z,0
2016-07-05T01:53:32.960Z,0
2016-07-05T01:54:33.297Z,0
2016-07-05T01:55:33.138Z,0
2016-07-05T01:56:32.885Z,0
2016-07-05T01:57:32.876Z,0
2016-07-05T01:58:33.156Z,0
2016-07-05T01:59:33.131Z,0
2016-07-05T02:00:33.020Z,0
2016-07-05T02:01:33.449Z,0
2016-07-05T02:02:33.310Z,0
2016-07-05T02:03:33.948Z,0
2016-07-05T02:04:33.382Z,0
2016-07-05T02:05:33.177Z,0
2016-07-05T02:06:32.984Z,0
2016-07-05T02:07:33.282Z,0
2016-07-05T02:08:33.313Z,0
2016-07-05T02:09:33.090Z,0
2016-07-05T02:10:33.122Z,0
2016-07-05T02:11:33.141Z,0
2016-07-05T02:12:33.085Z,0
2016-07-05T02:13:33.014Z,0
2016-07-05T02:14:32.995Z,0
2016-07-05T02:15:33.104Z,0
2016-07-05T02:16:33.032Z,0
2016-07-05T02:17:33.831Z,0
2016-07-05T02:18:33.078Z,0
2016-07-05T02:19:33.133Z,0
2016-07-05T02:20:33.084Z,0
2016-07-05T02:21:32.980Z,0
2016-07-05T02:22:33.021Z,0
2016-07-05T02:23:32.726Z,0
2016-07-05T02:24:32.973Z,0
2016-07-05T02:25:33.057Z,0
2016-07-05T02:26:32.786Z,0
2016-07-05T02:27:32.943Z,0
2016-07-05T02:28:32.756Z,0
2016-07-05T02:29:32.969Z,0
2016-07-05T02:30:33.021Z,0
2016-07-05T02:31:33.032Z,0
2016-07-05T02:32:33.010Z,0
2016-07-05T02:33:33.047Z,0
2016-07-05T02:34:32.973Z,0
2016-07-05T02:35:32.912Z,0
2016-07-05T02:36:32.914Z,0
2016-07-05T02:37:32.779Z,0
2016-07-05T02:38:32.901Z,0
2016-07-05T02:39:32.927Z,0
2016-07-05T02:40:33.052Z,0
2016-07-05T02:41:32.931Z,0
2016-07-05T02:42:32.730Z,0
2016-07-05T02:43:33.771Z,0
2016-07-05T02:44:32.702Z,0
2016-07-05T02:45:32.979Z,0
2016-07-05T02:46:32.777Z,0
2016-07-05T02:47:32.898Z,0
2016-07-05T02:48:32.889Z,0
2016-07-05T02:49:32.928Z,0
2016-07-05T02:50:33.048Z,0
2016-07-05T02:51:32.998Z,0
2016-07-05T02:52:32.868Z,0
2016-07-05T02:53:32.964Z,0
2016-07-05T02:54:32.962Z,0
2016-07-05T02:55:32.921Z,0
2016-07-05T02:56:32.867Z,0
2016-07-05T02:57:32.719Z,0
2016-07-05T02:58:32.767Z,0
2016-07-05T02:59:32.872Z,0
2016-07-05T03:00:32.923Z,0
2016-07-05T03:01:32.972Z,0
2016-07-05T03:02:32.786Z,0
2016-07-05T03:03:32.933Z,0
2016-07-05T03:04:32.903Z,0
2016-07-05T03:05:32.830Z,0
2016-07-05T03:06:32.650Z,0
2016-07-05T03:07:32.794Z,5
2016-07-05T03:08:32.892Z,5
2016-07-05T03:09:32.815Z,5
2016-07-05T03:10:32.830Z,5
2016-07-05T03:11:32.889Z,5
2016-07-05T03:12:32.757Z,5
2016-07-05T03:13:32.791Z,5
2016-07-05T03:14:32.883Z,5
2016-07-05T03:15:34.537Z,5
2016-07-05T03:16:32.802Z,5
2016-07-05T03:17:32.811Z,5
2016-07-05T03:18:33.704Z,5
2016-07-05T03:19:32.907Z,5
2016-07-05T03:20:32.777Z,5
2016-07-05T03:21:32.637Z,5
2016-07-05T03:22:32.621Z,5
2016-07-05T03:23:32.582Z,10
2016-07-05T03:24:32.863Z,10
2016-07-05T03:25:32.814Z,10
2016-07-05T03:26:32.890Z,10
2016-07-05T03:27:32.842Z,10
2016-07-05T03:28:32.631Z,10
2016-07-05T03:29:32.840Z,10
2016-07-05T03:30:32.591Z,10
2016-07-05T03:31:32.899Z,15
2016-07-05T03:32:32.577Z,15
2016-07-05T03:33:32.589Z,15
2016-07-05T03:34:32.565Z,20
2016-07-05T03:35:32.809Z,20
2016-07-05T03:36:32.544Z,20
2016-07-05T03:37:32.810Z,25
2016-07-05T03:38:32.547Z,25
2016-07-05T03:39:32.534Z,25
2016-07-05T03:40:32.882Z,30
2016-07-05T03:41:32.778Z,30
2016-07-05T03:42:32.501Z,30
2016-07-05T03:43:32.683Z,30
2016-07-05T03:44:32.794Z,25
2016-07-05T03:45:32.769Z,25
2016-07-05T03:46:32.614Z,30
2016-07-05T03:47:32.821Z,30
2016-07-05T03:48:32.785Z,30
2016-07-05T03:49:32.604Z,30
2016-07-05T03:50:33.169Z,30
2016-07-05T03:51:32.655Z,30
2016-07-05T03:52:32.485Z,30
2016-07-05T03:53:32.728Z,30
2016-07-05T03:54:32.753Z,30
2016-07-05T03:55:32.800Z,30
2016-07-05T03:56:32.832Z,30
2016-07-05T03:57:32.547Z,35
2016-07-05T03:58:32.492Z,35
2016-07-05T03:59:32.746Z,40
2016-07-05T04:00:32.530Z,40
2016-07-05T04:01:32.837Z,45
2016-07-05T04:02:32.724Z,50
2016-07-05T04:03:32.769Z,55
2016-07-05T04:04:32.672Z,55
2016-07-05T04:05:32.537Z,60
2016-07-05T04:06:32.649Z,60
2016-07-05T04:07:32.750Z,60
2016-07-05T04:08:32.728Z,65
2016-07-05T04:09:32.783Z,65
2016-07-05T04:10:32.738Z,70
2016-07-05T04:11:32.448Z,75
2016-07-05T04:12:32.745Z,75
2016-07-05T04:13:32.690Z,80
2016-07-05T04:14:32.703Z,80
2016-07-05T04:15:32.719Z,80
2016-07-05T04:16:32.721Z,80
2016-07-05T04:17:32.735Z,80
2016-07-05T04:18:32.690Z,85
2016-07-05T04:19:32.510Z,85
2016-07-05T04:20:32.950Z,90
2016-07-05T04:21:33.255Z,90
2016-07-05T04:22:32.592Z,95
2016-07-05T04:23:32.417Z,100
2016-07-05T04:24:32.395Z,105
2016-07-05T04:25:33.339Z,105
2016-07-05T04:26:32.654Z,105
2016-07-05T04:27:32.563Z,105
2016-07-05T04:28:32.402Z,110
2016-07-05T04:29:32.353Z,110
2016-07-05T04:30:33.536Z,115
2016-07-05T04:31:32.669Z,115
2016-07-05T04:32:32.367Z,120
2016-07-05T04:33:32.700Z,125
2016-07-05T04:34:32.658Z,125
2016-07-05T04:35:32.551Z,135
2016-07-05T04:36:32.447Z,135
2016-07-05T04:37:32.373Z,135
2016-07-05T04:38:32.639Z,125
2016-07-05T04:39:32.608Z,115
2016-07-05T04:40:32.496Z,115
2016-07-05T04:41:32.696Z,120
2016-07-05T04:42:32.547Z,130
2016-07-05T04:43:32.763Z,135
2016-07-05T04:44:32.325Z,130
2016-07-05T04:45:32.581Z,135
2016-07-05T04:46:32.330Z,130
2016-07-05T04:47:32.642Z,125
2016-07-05T04:48:32.325Z,125
2016-07-05T04:49:32.321Z,135
2016-07-05T04:50:32.643Z,140
2016-07-05T04:51:32.319Z,140
2016-07-05T04:52:32.615Z,140
2016-07-05T04:53:32.500Z,135
2016-07-05T04:54:32.546Z,140
2016-07-05T04:55:32.302Z,145
2016-07-05T04:56:32.303Z,155
2016-07-05T04:57:32.404Z,155
2016-07-05T04:58:32.302Z,160
2016-07-05T04:59:32.373Z,160
2016-07-05T05:00:32.451Z,145
2016-07-05T05:01:32.379Z,140
2016-07-05T05:02:32.472Z,145
2016-07-05T05:03:32.308Z,145
2016-07-05T05:04:32.343Z,145
2016-07-05T05:05:32.343Z,145
2016-07-05T05:06:32.524Z,155
2016-07-05T05:07:32.284Z,160
2016-07-05T05:08:32.315Z,155
2016-07-05T05:09:32.559Z,160
2016-07-05T05:10:32.407Z,165
2016-07-05T05:11:32.514Z,175
2016-07-05T05:12:32.529Z,180
2016-07-05T05:13:32.285Z,175
2016-07-05T05:14:32.515Z,170
2016-07-05T05:15:32.444Z,180
2016-07-05T05:16:32.370Z,200
2016-07-05T05:17:32.593Z,205
2016-07-05T05:18:32.446Z,210
2016-07-05T05:19:32.419Z,220
2016-07-05T05:20:32.232Z,235
2016-07-05T05:21:32.293Z,255
2016-07-05T05:22:32.405Z,285
2016-07-05T05:23:33.160Z,315
2016-07-05T05:24:32.485Z,340
2016-07-05T05:25:32.324Z,340
2016-07-05T05:26:32.345Z,335
2016-07-05T05:27:32.295Z,330
2016-07-05T05:28:32.234Z,305
2016-07-05T05:29:32.560Z,285
2016-07-05T05:30:32.433Z,275
2016-07-05T05:31:32.431Z,265
2016-07-05T05:32:32.317Z,250
2016-07-05T05:33:32.397Z,220
2016-07-05T05:34:32.413Z,195
2016-07-05T05:35:32.465Z,200
2016-07-05T05:36:32.325Z,235
2016-07-05T05:37:32.440Z,260
2016-07-05T05:38:32.492Z,265
2016-07-05T05:39:32.203Z,255
2016-07-05T05:40:32.399Z,255
2016-07-05T05:41:32.402Z,265
2016-07-05T05:42:32.377Z,280
2016-07-05T05:43:32.203Z,285
2016-07-05T05:44:32.285Z,285
2016-07-05T05:45:32.401Z,290
2016-07-05T05:46:32.405Z,300
2016-07-05T05:47:32.404Z,310
2016-07-05T05:48:32.404Z,315
2016-07-05T05:49:32.407Z,310
2016-07-05T05:50:32.526Z,305
2016-07-05T05:51:32.397Z,300
2016-07-05T05:52:32.445Z,305
2016-07-05T05:53:32.461Z,325
2016-07-05T05:54:32.394Z,340
2016-07-05T05:55:32.437Z,355
2016-07-05T05:56:32.300Z,355
2016-07-05T05:57:32.313Z,350
2016-07-05T05:58:32.456Z,340
2016-07-05T05:59:32.412Z,305
2016-07-05T06:00:32.413Z,295
2016-07-05T06:01:32.280Z,285
2016-07-05T06:02:32.394Z,285
2016-07-05T06:03:32.350Z,300
2016-07-05T06:04:32.479Z,305
2016-07-05T06:05:32.400Z,290
2016-07-05T06:06:32.395Z,285
2016-07-05T06:07:32.442Z,295
2016-07-05T06:08:32.389Z,290
2016-07-05T06:09:32.405Z,295
2016-07-05T06:10:32.377Z,345
2016-07-05T06:11:32.413Z,415
2016-07-05T06:12:32.385Z,430
2016-07-05T06:13:32.362Z,405
2016-07-05T06:14:32.437Z,365
2016-07-05T06:15:32.201Z,330
2016-07-05T06:16:32.980Z,300
2016-07-05T06:17:32.158Z,305
2016-07-05T06:18:32.279Z,320
2016-07-05T06:19:32.180Z,355
2016-07-05T06:20:32.295Z,355
2016-07-05T06:21:32.364Z,380
2016-07-05T06:22:32.440Z,385
2016-07-05T06:23:32.366Z,355
2016-07-05T06:24:32.380Z,330
2016-07-05T06:25:32.451Z,305
2016-07-05T06:26:32.395Z,315
2016-07-05T06:27:32.378Z,300
2016-07-05T06:28:32.425Z,325
2016-07-05T06:29:32.344Z,330
2016-07-05T06:30:32.366Z,295
2016-07-05T06:31:32.316Z,280
2016-07-05T06:32:32.289Z,270
2016-07-05T06:33:32.498Z,235
2016-07-05T06:34:32.358Z,250
2016-07-05T06:35:32.233Z,250
2016-07-05T06:36:32.243Z,245
2016-07-05T06:37:32.368Z,220
2016-07-05T06:38:32.338Z,210
2016-07-05T06:39:32.417Z,200
2016-07-05T06:40:32.422Z,210
2016-07-05T06:41:32.310Z,210
2016-07-05T06:42:32.421Z,220
2016-07-05T06:43:32.401Z,225
2016-07-05T06:44:32.333Z,285
2016-07-05T06:45:32.246Z,320
2016-07-05T06:46:32.853Z,310
2016-07-05T06:47:32.431Z,235
2016-07-05T06:48:32.345Z,230
2016-07-05T06:49:32.262Z,230
2016-07-05T06:50:32.406Z,390
2016-07-05T06:51:32.342Z,435
2016-07-05T06:52:32.372Z,295
2016-07-05T06:53:32.349Z,315
2016-07-05T06:54:32.392Z,530
2016-07-05T06:55:32.449Z,460
2016-07-05T06:56:32.382Z,415
2016-07-05T06:57:32.336Z,540
2016-07-05T06:58:32.381Z,565
2016-07-05T06:59:32.397Z,530
2016-07-05T07:00:32.434Z,495
2016-07-05T07:01:32.381Z,555
2016-07-05T07:02:32.386Z,285
2016-07-05T07:03:32.372Z,325
2016-07-05T07:04:32.147Z,290
2016-07-05T07:05:32.385Z,325
2016-07-05T07:06:32.338Z,370
2016-07-05T07:07:32.358Z,360
2016-07-05T07:08:32.376Z,240
2016-07-05T07:09:32.324Z,250
2016-07-05T07:10:32.369Z,300
2016-07-05T07:11:32.452Z,350
2016-07-05T07:12:32.364Z,410
2016-07-05T07:13:32.357Z,430
2016-07-05T07:14:32.395Z,500
2016-07-05T07:15:32.655Z,485
2016-07-05T07:16:32.300Z,485
2016-07-05T07:17:32.461Z,500
2016-07-05T07:18:32.456Z,550
2016-07-05T07:19:32.389Z,575
2016-07-05T07:20:32.358Z,660
2016-07-05T07:21:32.343Z,465
2016-07-05T07:22:32.383Z,395
2016-07-05T07:23:32.352Z,375
2016-07-05T07:24:32.363Z,380
2016-07-05T07:25:32.436Z,400
2016-07-05T07:26:32.356Z,440
2016-07-05T07:27:32.467Z,465
2016-07-05T07:28:32.431Z,505
2016-07-05T07:29:32.229Z,515
2016-07-05T07:30:32.471Z,495
2016-07-05T07:31:32.293Z,455
2016-07-05T07:32:32.385Z,400
2016-07-05T07:33:32.441Z,425
2016-07-05T07:34:32.374Z,405
2016-07-05T07:35:32.390Z,395
2016-07-05T07:36:32.275Z,370
2016-07-05T07:37:32.399Z,340
2016-07-05T07:38:32.405Z,355
2016-07-05T07:39:32.399Z,395
2016-07-05T07:40:32.406Z,870
2016-07-05T07:41:32.456Z,760
2016-07-05T07:42:32.433Z,575
2016-07-05T07:43:32.402Z,1120
2016-07-05T07:44:32.531Z,1215
2016-07-05T07:45:32.391Z,510
2016-07-05T07:46:32.410Z,1340
2016-07-05T07:47:32.536Z,1295
2016-07-05T07:48:32.479Z,1780
2016-07-05T07:49:33.275Z,1890
2016-07-05T07:50:33.216Z,1840
2016-07-05T07:51:32.421Z,1800
2016-07-05T07:52:32.449Z,1695
2016-07-05T07:53:32.427Z,1710
2016-07-05T07:54:32.662Z,1745
2016-07-05T07:55:32.408Z,1980
2016-07-05T07:56:32.350Z,2050
2016-07-05T07:57:33.249Z,2025
2016-07-05T07:58:32.453Z,2080
2016-07-05T07:59:32.457Z,2235
2016-07-05T08:00:32.452Z,2120
2016-07-05T08:01:32.620Z,1975
2016-07-05T08:02:32.567Z,2290
2016-07-05T08:03:32.590Z,2335
2016-07-05T08:04:32.297Z,2255
2016-07-05T08:05:32.525Z,1905
2016-07-05T08:06:32.535Z,1205
2016-07-05T08:07:32.520Z,630
2016-07-05T08:08:32.523Z,640
2016-07-05T08:09:32.528Z,645
2016-07-05T08:10:32.547Z,620
2016-07-05T08:11:32.577Z,605
2016-07-05T08:12:32.530Z,595
2016-07-05T08:13:32.578Z,590
2016-07-05T08:14:32.679Z,535
2016-07-05T08:15:32.640Z,455
2016-07-05T08:16:32.399Z,420
2016-07-05T08:17:32.627Z,440
2016-07-05T08:18:32.570Z,430
2016-07-05T08:19:33.252Z,420
2016-07-05T08:20:32.410Z,425
2016-07-05T08:21:32.736Z,445
2016-07-05T08:22:32.907Z,385
2016-07-05T08:23:32.559Z,390
2016-07-05T08:24:48.633Z,385
2016-07-05T08:25:32.772Z,380
2016-07-05T08:26:33.767Z,455
2016-07-05T08:27:32.928Z,535
2016-07-05T08:28:32.635Z,540
2016-07-05T08:29:33.670Z,515
2016-07-05T08:30:32.730Z,600
2016-07-05T08:31:33.118Z,635
2016-07-05T08:32:33.399Z,645
2016-07-05T08:33:32.758Z,660
2016-07-05T08:34:32.764Z,725
2016-07-05T08:35:32.743Z,630
2016-07-05T08:36:32.805Z,590
2016-07-05T08:37:34.310Z,680
2016-07-05T08:38:32.802Z,670
2016-07-05T08:39:32.731Z,635
2016-07-05T08:40:33.111Z,650
2016-07-05T08:41:32.862Z,625
2016-07-05T08:42:33.532Z,550
2016-07-05T08:43:32.796Z,560
2016-07-05T08:44:32.824Z,560
2016-07-05T08:45:33.063Z,600
2016-07-05T08:46:32.635Z,625
2016-07-05T08:47:32.846Z,600
2016-07-05T08:48:32.910Z,610
2016-07-05T08:49:33.526Z,540
2016-07-05T08:50:32.997Z,500
2016-07-05T08:51:32.813Z,515
2016-07-05T08:52:33.525Z,470
2016-07-05T08:53:32.665Z,440
2016-07-05T08:54:32.834Z,390
2016-07-05T08:55:32.887Z,410
2016-07-05T08:56:33.495Z,435
2016-07-05T08:57:32.829Z,430
2016-07-05T08:58:32.757Z,440
2016-07-05T08:59:32.928Z,480
2016-07-05T09:00:32.900Z,525
2016-07-05T09:01:32.786Z,485
2016-07-05T09:02:32.842Z,470
2016-07-05T09:03:32.972Z,490
2016-07-05T09:04:32.921Z,500
2016-07-05T09:05:32.914Z,485
2016-07-05T09:06:32.692Z,460
2016-07-05T09:07:32.912Z,365
2016-07-05T09:08:32.948Z,295
2016-07-05T09:09:32.906Z,280
2016-07-05T09:10:32.878Z,270
2016-07-05T09:11:32.954Z,280
2016-07-05T09:12:32.935Z,280
2016-07-05T09:13:32.883Z,290
2016-07-05T09:14:33.292Z,310
2016-07-05T09:15:32.954Z,305
2016-07-05T09:16:33.129Z,290
2016-07-05T09:17:33.322Z,310
2016-07-05T09:18:32.918Z,330
2016-07-05T09:19:32.912Z,395
2016-07-05T09:20:32.848Z,460
2016-07-05T09:21:32.808Z,455
2016-07-05T09:22:33.122Z,440
2016-07-05T09:23:36.530Z,520
2016-07-05T09:24:34.313Z,520
2016-07-05T09:25:33.887Z,510
2016-07-05T09:26:32.974Z,645
2016-07-05T09:27:33.665Z,565
2016-07-05T09:28:33.844Z,570
2016-07-05T09:29:35.554Z,605
2016-07-05T09:30:33.008Z,620
2016-07-05T09:31:32.943Z,580
2016-07-05T09:32:32.765Z,580
2016-07-05T09:33:32.758Z,565
2016-07-05T09:34:32.963Z,530
2016-07-05T09:35:33.159Z,525
2016-07-05T09:36:32.857Z,520
2016-07-05T09:37:32.947Z,500
2016-07-05T09:38:33.247Z,460
2016-07-05T09:39:33.029Z,475
2016-07-05T09:40:32.886Z,500
2016-07-05T09:41:33.006Z,545
2016-07-05T09:42:32.872Z,590
2016-07-05T09:43:32.975Z,575
2016-07-05T09:44:33.099Z,515
2016-07-05T09:45:33.067Z,515
2016-07-05T09:46:32.891Z,475
2016-07-05T09:47:33.130Z,380
2016-07-05T09:48:33.092Z,335
2016-07-05T09:49:32.972Z,320
2016-07-05T09:50:33.110Z,355
2016-07-05T09:51:32.948Z,395
2016-07-05T09:52:33.012Z,385
2016-07-05T09:53:32.841Z,315
2016-07-05T09:54:33.000Z,320
2016-07-05T09:55:33.103Z,405
2016-07-05T09:56:32.944Z,470
2016-07-05T09:57:33.029Z,570
2016-07-05T09:58:33.104Z,495
2016-07-05T09:59:33.020Z,420
2016-07-05T10:00:33.036Z,375
2016-07-05T10:01:33.089Z,345
2016-07-05T10:02:33.089Z,315
2016-07-05T10:03:33.106Z,290
2016-07-05T10:04:33.057Z,230
2016-07-05T10:05:33.095Z,205
2016-07-05T10:06:33.081Z,290
2016-07-05T10:07:33.043Z,330
2016-07-05T10:08:33.087Z,280
2016-07-05T10:09:33.139Z,245
2016-07-05T10:10:33.123Z,285
2016-07-05T10:11:33.082Z,280
2016-07-05T10:12:33.040Z,225
2016-07-05T10:13:33.077Z,215
2016-07-05T10:14:33.127Z,185
2016-07-05T10:15:33.095Z,185
2016-07-05T10:16:32.956Z,190
2016-07-05T10:17:33.060Z,245
2016-07-05T10:18:33.072Z,265
2016-07-05T10:19:33.073Z,295
2016-07-05T10:20:33.088Z,360
2016-07-05T10:21:33.077Z,405
2016-07-05T10:22:34.051Z,405
2016-07-05T10:23:32.896Z,385
2016-07-05T10:24:33.073Z,345
2016-07-05T10:25:33.082Z,280
2016-07-05T10:26:33.060Z,220
2016-07-05T10:27:33.155Z,210
2016-07-05T10:28:32.906Z,255
2016-07-05T10:29:33.124Z,295
2016-07-05T10:30:33.092Z,360
2016-07-05T10:31:33.603Z,380
2016-07-05T10:32:33.844Z,345
2016-07-05T10:33:33.075Z,320
2016-07-05T10:34:33.995Z,325
2016-07-05T10:35:33.090Z,350
2016-07-05T10:36:32.995Z,335
2016-07-05T10:37:33.023Z,310
2016-07-05T10:38:33.116Z,290
2016-07-05T10:39:32.930Z,255
2016-07-05T10:40:33.106Z,260
2016-07-05T10:41:33.234Z,275
2016-07-05T10:42:33.227Z,305
2016-07-05T10:43:32.938Z,340
2016-07-05T10:44:32.947Z,365
2016-07-05T10:45:33.131Z,385
2016-07-05T10:46:33.047Z,485
2016-07-05T10:47:33.167Z,530
2016-07-05T10:48:33.114Z,570
2016-07-05T10:49:33.142Z,595
2016-07-05T10:50:33.237Z,545
2016-07-05T10:51:33.249Z,440
2016-07-05T10:52:33.255Z,440
2016-07-05T10:53:33.226Z,440
2016-07-05T10:54:33.210Z,430
2016-07-05T10:55:33.155Z,420
2016-07-05T10:56:33.160Z,395
2016-07-05T10:57:33.083Z,320
2016-07-05T10:58:33.223Z,250
2016-07-05T10:59:33.179Z,235
2016-07-05T11:00:33.211Z,270
2016-07-05T11:01:33.058Z,370
2016-07-05T11:02:33.194Z,490
2016-07-05T11:03:33.192Z,580
2016-07-05T11:04:33.232Z,590
2016-07-05T11:05:33.060Z,545
2016-07-05T11:06:33.073Z,460
2016-07-05T11:07:33.153Z,400
2016-07-05T11:08:33.282Z,380
2016-07-05T11:09:33.269Z,380
2016-07-05T11:10:33.203Z,385
2016-07-05T11:11:33.187Z,395
2016-07-05T11:12:33.175Z,430
2016-07-05T11:13:33.231Z,485
2016-07-05T11:14:33.213Z,515
2016-07-05T11:15:33.193Z,565
2016-07-05T11:16:33.191Z,585
2016-07-05T11:17:33.211Z,560
2016-07-05T11:18:33.220Z,570
2016-07-05T11:19:33.943Z,585
2016-07-05T11:20:33.202Z,610
2016-07-05T11:21:33.220Z,655
2016-07-05T11:22:33.210Z,645
2016-07-05T11:23:33.162Z,595
2016-07-05T11:24:33.174Z,550
2016-07-05T11:25:33.261Z,555
2016-07-05T11:26:33.254Z,555
2016-07-05T11:27:33.314Z,580
2016-07-05T11:28:33.127Z,615
2016-07-05T11:29:33.193Z,630
2016-07-05T11:30:33.316Z,630
2016-07-05T11:31:33.329Z,620
2016-07-05T11:32:33.268Z,600
2016-07-05T11:33:33.151Z,585
2016-07-05T11:34:33.219Z,600
2016-07-05T11:35:33.248Z,610
2016-07-05T11:36:33.022Z,625
2016-07-05T11:37:33.250Z,660
2016-07-05T11:38:33.222Z,640
2016-07-05T11:39:33.134Z,600
2016-07-05T11:40:33.312Z,510
2016-07-05T11:41:33.323Z,370
2016-07-05T11:42:33.271Z,280
2016-07-05T11:43:33.262Z,250
2016-07-05T11:44:33.987Z,215
2016-07-05T11:45:33.282Z,230
2016-07-05T11:46:33.178Z,275
2016-07-05T11:47:33.279Z,400
2016-07-05T11:48:33.228Z,470
2016-07-05T11:49:33.389Z,515
2016-07-05T11:50:33.321Z,485
2016-07-05T11:51:33.264Z,515
2016-07-05T11:52:33.367Z,525
2016-07-05T11:53:33.288Z,535
2016-07-05T11:54:33.285Z,490
2016-07-05T11:55:34.221Z,445
2016-07-05T11:56:33.178Z,415
2016-07-05T11:57:33.366Z,405
2016-07-05T11:58:33.289Z,390
2016-07-05T11:59:33.331Z,385
2016-07-05T12:00:33.176Z,430
2016-07-05T12:01:33.349Z,470
2016-07-05T12:02:33.234Z,490
2016-07-05T12:03:33.408Z,495
2016-07-05T12:04:33.384Z,535
2016-07-05T12:05:33.222Z,560
2016-07-05T12:06:33.361Z,485
2016-07-05T12:07:34.045Z,380
2016-07-05T12:08:33.327Z,345
2016-07-05T12:09:33.329Z,355
2016-07-05T12:10:33.389Z,345
2016-07-05T12:11:33.409Z,335
2016-07-05T12:12:33.331Z,310
2016-07-05T12:13:33.353Z,320
2016-07-05T12:14:33.238Z,350
2016-07-05T12:15:33.237Z,375
2016-07-05T12:16:33.236Z,390
2016-07-05T12:17:33.214Z,380
2016-07-05T12:18:33.244Z,455
2016-07-05T12:19:33.335Z,480
2016-07-05T12:20:33.345Z,490
2016-07-05T12:21:33.147Z,515
2016-07-05T12:22:33.807Z,600
2016-07-05T12:23:33.365Z,635
2016-07-05T12:24:33.201Z,625
2016-07-05T12:25:33.198Z,630
2016-07-05T12:26:33.256Z,595
2016-07-05T12:27:33.376Z,565
2016-07-05T12:28:33.346Z,550
2016-07-05T12:29:33.374Z,550
2016-07-05T12:30:33.387Z,550
2016-07-05T12:31:33.368Z,545
2016-07-05T12:32:33.379Z,535
2016-07-05T12:33:33.400Z,530
2016-07-05T12:34:33.358Z,510
2016-07-05T12:35:33.178Z,515
2016-07-05T12:36:33.291Z,525
2016-07-05T12:37:33.376Z,540
2016-07-05T12:38:33.504Z,565
2016-07-05T12:39:34.146Z,565
2016-07-05T12:40:33.448Z,550
2016-07-05T12:41:33.461Z,500
2016-07-05T12:42:33.486Z,465
2016-07-05T12:43:33.456Z,480
2016-07-05T12:44:33.521Z,450
2016-07-05T12:45:33.392Z,385
2016-07-05T12:46:33.430Z,330
2016-07-05T12:47:33.656Z,280
2016-07-05T12:48:33.519Z,240
2016-07-05T12:49:33.443Z,200
2016-07-05T12:50:33.512Z,205
2016-07-05T12:51:33.451Z,215
2016-07-05T12:52:33.331Z,215
2016-07-05T12:53:33.525Z,215
2016-07-05T12:54:33.542Z,235
2016-07-05T12:55:33.654Z,220
2016-07-05T12:56:33.290Z,245
2016-07-05T12:57:33.461Z,295
2016-07-05T12:58:33.542Z,385
2016-07-05T12:59:33.476Z,380
2016-07-05T13:00:33.458Z,370
2016-07-05T13:01:33.527Z,365
2016-07-05T13:02:33.491Z,380
2016-07-05T13:03:33.514Z,435
2016-07-05T13:04:33.354Z,485
2016-07-05T13:05:33.574Z,515
2016-07-05T13:06:33.400Z,520
2016-07-05T13:07:33.303Z,470
2016-07-05T13:08:33.473Z,415
2016-07-05T13:09:33.387Z,390
2016-07-05T13:10:33.392Z,355
2016-07-05T13:11:33.526Z,305
2016-07-05T13:12:33.305Z,285
2016-07-05T13:13:33.506Z,295
2016-07-05T13:14:33.465Z,315
2016-07-05T13:15:33.670Z,330
2016-07-05T13:16:33.303Z,370
2016-07-05T13:17:33.510Z,415
2016-07-05T13:18:33.527Z,430
2016-07-05T13:19:33.486Z,420
2016-07-05T13:20:33.656Z,400
2016-07-05T13:21:33.830Z,405
2016-07-05T13:22:33.435Z,405
2016-07-05T13:23:33.634Z,410
2016-07-05T13:24:33.546Z,395
2016-07-05T13:25:33.559Z,385
2016-07-05T13:26:33.561Z,375
2016-07-05T13:27:33.564Z,390
2016-07-05T13:28:34.039Z,400
2016-07-05T13:29:33.582Z,400
2016-07-05T13:30:33.584Z,405
2016-07-05T13:31:33.557Z,400
2016-07-05T13:32:33.957Z,365
2016-07-05T13:33:33.660Z,330
2016-07-05T13:34:33.353Z,300
2016-07-05T13:35:33.721Z,265
2016-07-05T13:36:33.474Z,225
2016-07-05T13:37:33.596Z,230
2016-07-05T13:38:33.603Z,245
2016-07-05T13:39:33.690Z,280
2016-07-05T13:40:33.658Z,315
2016-07-05T13:41:33.606Z,375
2016-07-05T13:42:33.634Z,375
2016-07-05T13:43:33.767Z,350
2016-07-05T13:44:33.611Z,360
2016-07-05T13:45:33.614Z,320
2016-07-05T13:46:33.383Z,290
2016-07-05T13:47:33.647Z,270
2016-07-05T13:48:33.493Z,255
2016-07-05T13:49:33.624Z,235
2016-07-05T13:50:33.753Z,225
2016-07-05T13:51:33.652Z,215
2016-07-05T13:52:33.430Z,220
2016-07-05T13:53:33.688Z,215
2016-07-05T13:54:33.628Z,205
2016-07-05T13:55:33.719Z,220
2016-07-05T13:56:33.443Z,305
2016-07-05T13:57:33.647Z,365
2016-07-05T13:58:33.635Z,390
2016-07-05T13:59:33.641Z,420
2016-07-05T14:00:33.639Z,385
2016-07-05T14:01:33.638Z,305